Time;durP1;ratioP1;P1;durP2;ratioP2;P2;SDS_P1;SDS_P2;PMS_P1;PMS_P2;Temp;Humidity;BMP_temperature;BMP_pressure;BME280_temperature;BME280_humidity;BME280_pressure;Samples;Min_cycle;Max_cycle;Signal;HPM_P1;HPM_P2
2023/12/24 00:01:47;;;;;;;5.00;2.72;;;9.00;99.90;;;;;;4980789;28;89320;-30
2023/12/24 00:04:13;;;;;;;6.85;4.43;;;8.90;99.90;;;;;;4980052;28;88582;-28
2023/12/24 00:06:39;;;;;;;10.25;3.88;;;9.00;99.90;;;;;;4994074;28;90171;-33
2023/12/24 00:09:04;;;;;;;12.05;5.75;;;9.00;99.90;;;;;;4989480;28;89345;-33
2023/12/24 00:11:31;;;;;;;5.05;4.45;;;9.00;99.90;;;;;;5000092;28;89125;-29
2023/12/24 00:13:56;;;;;;;13.52;3.97;;;9.00;99.90;;;;;;4998909;28;89767;-30
2023/12/24 00:16:22;;;;;;;4.85;2.92;;;9.00;99.90;;;;;;4999464;28;90058;-30
2023/12/24 00:18:48;;;;;;;9.13;2.55;;;9.00;99.90;;;;;;5000306;28;89850;-32
2023/12/24 00:21:13;;;;;;;13.75;4.30;;;9.00;99.90;;;;;;4999466;28;89313;-32
2023/12/24 00:23:39;;;;;;;8.40;3.67;;;9.00;99.90;;;;;;5000252;28;87975;-33
2023/12/24 00:26:05;;;;;;;7.28;3.35;;;9.00;99.90;;;;;;4998359;28;90571;-29
2023/12/24 00:28:31;;;;;;;5.63;3.45;;;8.90;99.90;;;;;;4999746;28;89613;-31
2023/12/24 00:30:57;;;;;;;6.22;3.20;;;9.00;99.90;;;;;;4999230;28;88842;-28
2023/12/24 00:33:22;;;;;;;8.15;3.95;;;8.90;99.90;;;;;;4999828;28;88697;-30
2023/12/24 00:35:48;;;;;;;8.15;3.80;;;9.00;99.90;;;;;;4984091;28;90312;-33
2023/12/24 00:38:13;;;;;;;7.28;4.75;;;9.00;99.90;;;;;;4979230;28;89784;-30
2023/12/24 00:40:39;;;;;;;6.47;3.33;;;9.00;99.90;;;;;;4995192;28;89908;-34
2023/12/24 00:43:05;;;;;;;9.65;3.30;;;9.00;99.90;;;;;;4999738;28;89354;-30
2023/12/24 00:45:31;;;;;;;7.47;4.72;;;9.00;99.90;;;;;;4998772;28;90483;-32
2023/12/24 00:47:57;;;;;;;7.63;4.72;;;9.00;99.90;;;;;;4998727;28;90802;-33
2023/12/24 00:50:23;;;;;;;9.55;4.18;;;9.00;99.90;;;;;;4998241;28;90716;-29
2023/12/24 00:52:49;;;;;;;5.68;2.38;;;9.00;99.90;;;;;;4999612;28;89545;-31
2023/12/24 00:55:15;;;;;;;6.35;3.35;;;9.00;99.90;;;;;;4998687;28;90331;-29
2023/12/24 00:57:41;;;;;;;8.65;3.67;;;9.00;99.90;;;;;;4999108;28;89745;-30
2023/12/24 01:00:07;;;;;;;10.38;3.72;;;9.00;99.90;;;;;;4998528;28;89155;-29
2023/12/24 01:02:33;;;;;;;7.10;4.13;;;9.00;99.90;;;;;;4998619;28;88431;-32
2023/12/24 01:04:58;;;;;;;3.95;3.60;;;9.00;99.90;;;;;;4999052;28;90227;-30
2023/12/24 01:07:24;;;;;;;11.15;4.20;;;9.00;99.90;;;;;;4999286;28;90558;-30
2023/12/24 01:09:49;;;;;;;5.65;2.85;;;9.00;99.90;;;;;;4998188;28;89523;-30
2023/12/24 01:12:16;;;;;;;11.23;3.17;;;9.00;99.90;;;;;;4998543;28;89063;-31
2023/12/24 01:14:42;;;;;;;10.63;3.00;;;9.00;99.90;;;;;;4997812;28;89928;-31
2023/12/24 01:17:07;;;;;;;9.90;3.53;;;9.00;99.90;;;;;;4998869;28;89258;-31
2023/12/24 01:19:33;;;;;;;18.45;5.10;;;9.00;99.90;;;;;;4997663;28;89910;-28
2023/12/24 01:21:59;;;;;;;4.40;2.67;;;9.00;99.90;;;;;;4998108;28;89267;-30
2023/12/24 01:24:25;;;;;;;10.95;4.72;;;9.00;99.90;;;;;;4997106;28;90308;-30
2023/12/24 01:26:51;;;;;;;6.35;2.60;;;9.00;99.90;;;;;;4997613;28;89274;-32
2023/12/24 01:29:17;;;;;;;8.48;3.78;;;9.00;99.90;;;;;;4997129;28;89843;-32
2023/12/24 01:31:42;;;;;;;9.82;3.88;;;9.00;99.90;;;;;;4999355;28;88736;-31
2023/12/24 01:34:08;;;;;;;8.88;3.63;;;9.00;99.90;;;;;;4997574;28;90658;-29
2023/12/24 01:36:37;;;;;;;11.65;4.43;;;9.00;99.90;;;;;;4998965;28;89332;-30
2023/12/24 01:39:02;;;;;;;7.00;2.85;;;9.00;99.90;;;;;;4998773;28;90417;-29
2023/12/24 01:41:28;;;;;;;4.32;2.70;;;9.00;99.90;;;;;;4989278;28;89237;-28
2023/12/24 01:43:54;;;;;;;7.13;4.05;;;9.00;99.90;;;;;;4978933;28;89379;-30
2023/12/24 01:46:23;;;;;;;12.90;3.85;;;9.10;99.90;;;;;;4979580;28;89733;-32
2023/12/24 01:48:50;;;;;;;7.78;4.15;;;9.00;99.90;;;;;;4978764;28;90142;-30
2023/12/24 01:51:20;;;;;;;14.52;3.28;;;9.00;99.90;;;;;;4978787;28;90351;-29
2023/12/24 01:53:48;;;;;;;9.98;2.65;;;9.00;99.90;;;;;;4978927;28;89726;-32
2023/12/24 01:56:15;;;;;;;12.90;4.23;;;9.00;99.90;;;;;;4979378;28;90223;-29
2023/12/24 01:58:41;;;;;;;5.00;2.85;;;9.10;99.90;;;;;;4979925;28;89847;-28
2023/12/24 02:01:07;;;;;;;8.85;2.88;;;9.00;99.90;;;;;;4978773;28;89038;-31
2023/12/24 02:03:33;;;;;;;8.88;3.28;;;9.10;99.90;;;;;;4979539;28;90324;-29
2023/12/24 02:06:00;;;;;;;5.68;2.85;;;9.00;99.90;;;;;;4979351;28;90094;-30
2023/12/24 02:08:26;;;;;;;4.70;3.30;;;9.00;99.90;;;;;;4980417;28;89759;-31
2023/12/24 02:10:52;;;;;;;3.97;3.10;;;9.00;99.90;;;;;;4980009;28;89567;-30
2023/12/24 02:13:18;;;;;;;4.20;2.83;;;9.00;99.90;;;;;;4978519;28;90003;-29
2023/12/24 02:15:51;;;;;;;6.90;2.60;;;9.00;99.90;;;;;;4978669;28;89962;-30
2023/12/24 02:18:17;;;;;;;5.90;2.42;;;9.00;99.90;;;;;;4978903;28;89900;-31
2023/12/24 02:20:42;;;;;;;4.95;2.75;;;9.00;99.90;;;;;;4978981;28;89130;-30
2023/12/24 02:23:08;;;;;;;2.95;1.88;;;9.00;99.90;;;;;;4978438;28;92163;-30
2023/12/24 02:25:34;;;;;;;3.70;1.83;;;9.10;99.90;;;;;;4977779;28;90695;-32
2023/12/24 02:28:23;;;;;;;2.58;1.50;;;9.10;99.90;;;;;;4983016;28;89839;-30
2023/12/24 02:30:52;;;;;;;2.28;1.33;;;9.10;99.90;;;;;;4999290;28;88666;-31
2023/12/24 02:33:19;;;;;;;1.83;1.67;;;9.10;99.90;;;;;;5001838;28;89623;-29
2023/12/24 02:35:47;;;;;;;5.15;1.83;;;9.10;99.90;;;;;;5000585;28;89422;-29
2023/12/24 02:38:13;;;;;;;1.80;1.67;;;9.10;99.90;;;;;;5000922;28;89327;-30
2023/12/24 02:40:39;;;;;;;1.15;1.05;;;9.10;99.90;;;;;;5000498;28;88403;-32
2023/12/24 02:43:04;;;;;;;3.85;1.42;;;9.10;99.90;;;;;;5001160;28;90139;-32
2023/12/24 02:45:30;;;;;;;0.93;0.85;;;9.10;99.90;;;;;;5000165;28;89653;-32
2023/12/24 02:47:55;;;;;;;1.48;1.35;;;9.10;99.90;;;;;;5000400;28;89539;-30
2023/12/24 02:50:21;;;;;;;2.15;1.38;;;9.10;99.90;;;;;;4998650;28;90344;-28
2023/12/24 02:52:47;;;;;;;2.75;1.40;;;9.10;99.90;;;;;;5000980;28;90180;-30
2023/12/24 02:55:12;;;;;;;1.42;1.33;;;9.10;99.90;;;;;;4999089;28;89350;-29
2023/12/24 02:57:38;;;;;;;2.00;1.90;;;9.10;99.90;;;;;;5000025;28;89651;-32
2023/12/24 03:00:08;;;;;;;2.13;1.92;;;9.10;99.90;;;;;;4999057;28;87970;-33
2023/12/24 03:02:34;;;;;;;1.20;1.10;;;9.10;99.90;;;;;;4999919;28;91550;-31
2023/12/24 03:05:01;;;;;;;3.35;2.33;;;9.10;99.90;;;;;;4998250;28;89849;-30
2023/12/24 03:07:28;;;;;;;3.53;1.77;;;9.10;99.90;;;;;;5000782;28;88716;-30
2023/12/24 03:09:54;;;;;;;2.83;1.88;;;9.10;99.90;;;;;;4999153;28;88095;-30
2023/12/24 03:12:19;;;;;;;2.97;1.73;;;9.10;99.90;;;;;;4999632;28;90728;-31
2023/12/24 03:14:45;;;;;;;9.25;1.92;;;9.10;99.90;;;;;;4998150;28;90376;-29
2023/12/24 03:17:10;;;;;;;1.95;1.27;;;9.10;99.90;;;;;;4998992;28;90694;-30
2023/12/24 03:19:36;;;;;;;1.95;1.42;;;9.10;99.90;;;;;;4999311;28;89988;-30
2023/12/24 03:22:02;;;;;;;2.97;1.27;;;9.10;99.90;;;;;;4999490;28;90237;-30
2023/12/24 03:24:28;;;;;;;4.13;2.10;;;9.10;99.90;;;;;;4997960;28;89762;-33
2023/12/24 03:26:54;;;;;;;3.20;1.73;;;9.10;99.90;;;;;;4999675;28;89631;-32
2023/12/24 03:29:19;;;;;;;2.40;1.30;;;9.10;99.90;;;;;;4997490;28;89179;-33
2023/12/24 03:31:45;;;;;;;1.80;1.70;;;9.10;99.90;;;;;;4981355;28;89373;-30
2023/12/24 03:34:11;;;;;;;1.63;1.52;;;9.10;99.90;;;;;;4996316;28;91279;-30
2023/12/24 03:36:36;;;;;;;1.63;1.52;;;9.10;99.90;;;;;;5000704;28;90137;-29
2023/12/24 03:39:02;;;;;;;1.40;1.30;;;9.10;99.90;;;;;;4986860;28;88543;-30
2023/12/24 03:41:27;;;;;;;1.85;1.17;;;9.10;99.90;;;;;;4999451;28;90496;-31
2023/12/24 03:43:53;;;;;;;2.17;1.50;;;9.10;99.90;;;;;;4987401;28;89650;-32
2023/12/24 03:46:19;;;;;;;1.88;1.60;;;9.10;99.90;;;;;;5001102;28;89481;-28
2023/12/24 03:48:45;;;;;;;1.75;1.63;;;9.10;99.90;;;;;;4998361;28;89560;-32
2023/12/24 03:51:11;;;;;;;1.70;1.40;;;9.10;99.90;;;;;;4989626;28;90295;-30
2023/12/24 03:53:37;;;;;;;3.63;1.73;;;9.10;99.90;;;;;;4999936;28;89767;-29
2023/12/24 03:56:04;;;;;;;2.03;1.92;;;9.10;99.90;;;;;;4999982;28;89563;-28
2023/12/24 03:58:30;;;;;;;3.55;1.75;;;9.10;99.90;;;;;;5000358;28;89210;-31
2023/12/24 04:00:56;;;;;;;2.60;1.40;;;9.20;99.90;;;;;;5000098;28;90494;-30
2023/12/24 04:03:21;;;;;;;2.40;2.20;;;9.10;99.90;;;;;;4996589;28;90927;-29
2023/12/24 04:05:47;;;;;;;7.72;2.08;;;9.20;99.90;;;;;;4990076;28;90062;-31
2023/12/24 04:08:14;;;;;;;3.70;1.80;;;9.20;99.90;;;;;;4984952;28;88741;-31
2023/12/24 04:10:40;;;;;;;3.80;1.70;;;9.20;99.90;;;;;;4980880;28;90686;-31
2023/12/24 04:13:06;;;;;;;3.13;2.08;;;9.20;99.90;;;;;;4980440;28;89893;-31
2023/12/24 04:15:32;;;;;;;2.50;2.17;;;9.20;99.90;;;;;;4981051;28;89163;-32
2023/12/24 04:17:58;;;;;;;2.50;2.08;;;9.20;99.90;;;;;;4978895;28;89240;-31
2023/12/24 04:20:23;;;;;;;1.83;1.60;;;9.20;99.90;;;;;;4980372;28;90226;-31
2023/12/24 04:22:49;;;;;;;2.80;1.40;;;9.20;99.90;;;;;;4980583;28;89345;-30
2023/12/24 04:25:15;;;;;;;1.00;1.00;;;9.20;99.90;;;;;;4979792;28;89602;-32
2023/12/24 04:27:40;;;;;;;2.80;1.60;;;9.20;99.90;;;;;;4982612;28;89878;-30
2023/12/24 04:30:06;;;;;;;2.38;1.13;;;9.30;99.90;;;;;;4999270;28;90230;-30
2023/12/24 04:32:32;;;;;;;3.22;1.83;;;9.30;99.90;;;;;;4999655;28;91040;-30
2023/12/24 04:34:58;;;;;;;1.95;1.67;;;9.20;99.90;;;;;;4999475;28;89171;-28
2023/12/24 04:37:23;;;;;;;1.15;1.08;;;9.30;99.90;;;;;;4998765;28;90656;-31
2023/12/24 04:39:49;;;;;;;2.42;1.13;;;9.30;99.90;;;;;;4999292;28;90106;-30
2023/12/24 04:42:15;;;;;;;6.78;2.30;;;9.30;99.90;;;;;;4996374;28;90503;-28
2023/12/24 04:44:40;;;;;;;2.47;1.40;;;9.30;99.90;;;;;;4999039;28;89550;-30
2023/12/24 04:47:09;;;;;;;1.40;1.30;;;9.40;99.90;;;;;;4996993;28;90127;-30
2023/12/24 04:49:34;;;;;;;;;;;9.30;99.90;;;;;;4998576;28;90419;-30
2023/12/24 04:52:00;;;;;;;4.25;1.40;;;9.30;99.90;;;;;;4998148;28;91527;-31
2023/12/24 04:54:27;;;;;;;2.25;1.00;;;9.40;99.90;;;;;;4997094;28;90745;-30
2023/12/24 04:56:52;;;;;;;1.20;1.10;;;9.40;99.90;;;;;;4997699;28;90939;-32
2023/12/24 04:59:18;;;;;;;1.25;1.15;;;9.40;99.90;;;;;;4998587;28;90952;-30
2023/12/24 05:01:43;;;;;;;2.22;1.45;;;9.40;99.90;;;;;;4996498;28;90009;-30
2023/12/24 05:04:09;;;;;;;0.93;0.93;;;9.40;99.90;;;;;;4998686;28;89432;-29
2023/12/24 05:06:35;;;;;;;1.30;0.90;;;9.40;99.90;;;;;;4997575;28;89829;-30
2023/12/24 05:09:01;;;;;;;1.25;1.10;;;9.40;99.90;;;;;;4999009;28;88385;-32
2023/12/24 05:11:26;;;;;;;2.83;1.38;;;9.40;99.90;;;;;;4998055;28;89719;-30
2023/12/24 05:13:52;;;;;;;2.33;0.93;;;9.40;99.90;;;;;;4998101;28;89350;-32
2023/12/24 05:16:17;;;;;;;1.17;1.00;;;9.40;99.90;;;;;;4998280;28;90238;-29
2023/12/24 05:18:44;;;;;;;1.40;0.77;;;9.40;99.90;;;;;;4979527;28;90533;-31
2023/12/24 05:21:09;;;;;;;1.15;1.05;;;9.50;99.90;;;;;;4994169;28;89836;-29
2023/12/24 05:23:35;;;;;;;0.90;0.85;;;9.50;99.90;;;;;;4977137;28;89856;-31
2023/12/24 05:26:00;;;;;;;1.05;0.77;;;9.50;99.90;;;;;;4993892;28;87900;-30
2023/12/24 05:28:26;;;;;;;2.92;1.17;;;9.50;99.90;;;;;;4999233;28;90385;-29
2023/12/24 05:30:52;;;;;;;1.48;1.20;;;9.50;99.90;;;;;;4998282;28;89445;-32
2023/12/24 05:33:17;;;;;;;2.08;0.98;;;9.50;99.90;;;;;;4998808;28;89385;-32
2023/12/24 05:35:43;;;;;;;1.00;0.90;;;9.50;99.90;;;;;;4998046;28;88359;-30
2023/12/24 05:38:08;;;;;;;2.70;1.13;;;9.60;99.90;;;;;;4998742;28;90249;-29
2023/12/24 05:40:34;;;;;;;2.47;1.05;;;9.60;99.90;;;;;;4997766;28;89394;-28
2023/12/24 05:43:00;;;;;;;0.80;0.80;;;9.60;99.90;;;;;;4997970;28;89792;-31
2023/12/24 05:45:25;;;;;;;1.23;1.13;;;9.60;99.90;;;;;;4998595;28;88300;-30
2023/12/24 05:47:51;;;;;;;1.63;1.52;;;9.60;99.90;;;;;;4997456;28;90156;-31
2023/12/24 05:50:16;;;;;;;1.42;1.33;;;9.60;99.90;;;;;;4991066;28;90110;-31
2023/12/24 05:52:42;;;;;;;1.40;1.30;;;9.70;99.90;;;;;;4996786;28;88844;-32
2023/12/24 05:55:09;;;;;;;1.35;1.25;;;9.70;99.90;;;;;;4998708;28;89634;-31
2023/12/24 05:57:35;;;;;;;1.20;1.00;;;9.70;99.90;;;;;;4998759;28;90327;-30
2023/12/24 06:00:00;;;;;;;1.25;0.95;;;9.70;99.90;;;;;;4996899;28;90016;-30
2023/12/24 06:02:26;;;;;;;1.30;1.15;;;9.70;99.90;;;;;;4998248;28;89529;-32
2023/12/24 06:04:52;;;;;;;1.40;1.20;;;9.70;99.90;;;;;;4997614;28;89073;-29
2023/12/24 06:07:17;;;;;;;1.55;1.45;;;9.70;99.90;;;;;;5001964;28;89389;-31
2023/12/24 06:09:43;;;;;;;1.40;1.17;;;9.70;99.90;;;;;;5000807;28;89939;-29
2023/12/24 06:12:08;;;;;;;1.70;1.55;;;9.70;99.90;;;;;;5001302;28;89543;-30
2023/12/24 06:14:34;;;;;;;1.10;1.00;;;9.70;99.90;;;;;;5001504;28;89570;-30
2023/12/24 06:17:00;;;;;;;2.30;1.17;;;9.70;99.90;;;;;;5001414;28;90214;-30
2023/12/24 06:19:26;;;;;;;2.00;1.85;;;9.70;99.90;;;;;;5000148;28;90386;-28
2023/12/24 06:21:52;;;;;;;2.40;2.05;;;9.80;99.90;;;;;;5002040;28;89142;-30
2023/12/24 06:24:20;;;;;;;1.45;1.35;;;9.80;99.90;;;;;;5001077;28;88897;-31
2023/12/24 06:26:47;;;;;;;3.20;1.55;;;9.80;99.90;;;;;;5001638;28;89741;-29
2023/12/24 06:29:13;;;;;;;4.43;2.15;;;9.90;99.90;;;;;;4998362;28;90459;-30
2023/12/24 06:31:38;;;;;;;2.67;2.10;;;9.80;99.90;;;;;;4990248;28;90291;-29
2023/12/24 06:34:04;;;;;;;3.13;2.25;;;9.80;99.90;;;;;;5001664;28;90081;-32
2023/12/24 06:36:30;;;;;;;4.18;2.38;;;9.90;99.90;;;;;;5001592;28;90219;-30
2023/12/24 06:38:55;;;;;;;3.75;1.88;;;9.90;99.90;;;;;;4986581;28;89319;-31
2023/12/24 06:41:22;;;;;;;3.08;2.60;;;9.90;99.90;;;;;;4982051;28;90434;-31
2023/12/24 06:43:47;;;;;;;2.65;2.13;;;9.90;99.90;;;;;;4982602;28;89704;-30
2023/12/24 06:46:13;;;;;;;7.95;2.85;;;9.90;99.90;;;;;;4982034;28;90126;-32
2023/12/24 06:48:39;;;;;;;3.30;2.35;;;10.00;99.90;;;;;;4981719;28;89720;-31
2023/12/24 06:51:05;;;;;;;2.65;2.45;;;10.00;99.90;;;;;;4982165;28;89233;-28
2023/12/24 06:53:30;;;;;;;6.22;2.58;;;10.00;99.90;;;;;;4983074;28;89920;-30
2023/12/24 06:55:56;;;;;;;3.20;2.75;;;10.00;99.90;;;;;;4981983;28;90491;-32
2023/12/24 06:58:22;;;;;;;6.50;3.13;;;10.00;99.90;;;;;;4983196;28;89800;-30
2023/12/24 07:00:47;;;;;;;4.38;3.13;;;10.00;99.90;;;;;;4982034;28;89661;-28
2023/12/24 07:03:13;;;;;;;7.47;4.25;;;10.00;99.90;;;;;;4983038;28;87860;-30
2023/12/24 07:05:38;;;;;;;6.47;3.50;;;10.00;99.90;;;;;;4982213;28;90603;-31
2023/12/24 07:08:07;;;;;;;9.43;4.25;;;10.10;99.90;;;;;;4982327;28;89756;-33
2023/12/24 07:10:33;;;;;;;7.75;4.53;;;10.10;99.90;;;;;;4982781;28;89343;-32
2023/12/24 07:12:59;;;;;;;13.40;4.93;;;10.10;99.90;;;;;;4982340;28;87618;-31
2023/12/24 07:15:24;;;;;;;6.90;4.18;;;10.10;99.90;;;;;;4982341;28;89268;-30
2023/12/24 07:17:50;;;;;;;11.25;4.93;;;10.10;99.90;;;;;;4982574;28;90540;-30
2023/12/24 07:20:16;;;;;;;6.03;3.92;;;10.10;99.90;;;;;;4981747;28;90187;-31
2023/12/24 07:22:42;;;;;;;11.05;4.65;;;10.20;99.90;;;;;;4984059;28;89172;-31
2023/12/24 07:25:08;;;;;;;10.40;3.72;;;10.10;99.90;;;;;;4974269;28;89514;-32
2023/12/24 07:27:34;;;;;;;10.18;4.78;;;10.20;99.90;;;;;;4983991;28;89776;-31
2023/12/24 07:29:59;;;;;;;9.77;4.90;;;10.20;99.90;;;;;;4983890;28;89523;-30
2023/12/24 07:32:25;;;;;;;12.15;4.57;;;10.20;99.90;;;;;;4984058;28;88328;-32
2023/12/24 07:34:51;;;;;;;6.65;4.07;;;10.20;99.90;;;;;;4982564;28;89722;-32
2023/12/24 07:37:17;;;;;;;10.25;5.47;;;10.20;99.90;;;;;;4993889;28;91309;-30
2023/12/24 07:39:43;;;;;;;6.00;4.53;;;10.20;99.90;;;;;;4981346;28;89630;-31
2023/12/24 07:42:08;;;;;;;8.20;5.13;;;10.20;99.90;;;;;;5019506;22;90281;-29
2023/12/24 07:44:34;;;;;;;7.20;5.32;;;10.20;99.90;;;;;;5000021;28;90057;-31
2023/12/24 07:47:00;;;;;;;7.50;4.00;;;10.30;99.90;;;;;;4980552;28;90304;-31
2023/12/24 07:49:26;;;;;;;7.57;4.20;;;10.30;99.90;;;;;;4980880;28;89427;-28
2023/12/24 07:51:52;;;;;;;7.80;5.20;;;10.30;99.90;;;;;;4995181;28;89611;-29
2023/12/24 07:54:18;;;;;;;12.45;4.85;;;10.30;99.90;;;;;;4980521;28;90661;-31
2023/12/24 07:56:43;;;;;;;7.63;3.95;;;10.40;99.90;;;;;;4981061;28;89066;-31
2023/12/24 07:59:09;;;;;;;9.00;4.97;;;10.40;99.90;;;;;;4980701;28;89963;-31
2023/12/24 08:01:37;;;;;;;6.10;4.75;;;10.40;99.90;;;;;;4980844;28;87883;-31
2023/12/24 08:04:03;;;;;;;10.77;4.60;;;10.40;99.90;;;;;;4980274;28;88378;-30
2023/12/24 08:06:29;;;;;;;24.77;6.22;;;10.40;99.90;;;;;;4980347;28;90251;-29
2023/12/24 08:08:56;;;;;;;6.45;3.70;;;10.50;99.90;;;;;;4980550;28;90456;-28
2023/12/24 08:11:22;;;;;;;11.98;5.47;;;10.40;99.90;;;;;;4980709;28;89034;-33
2023/12/24 08:13:47;;;;;;;6.97;3.72;;;10.40;99.90;;;;;;4980844;28;89868;-32
2023/12/24 08:16:13;;;;;;;10.00;4.97;;;10.40;99.90;;;;;;4980582;28;89416;-31
2023/12/24 08:18:39;;;;;;;16.63;6.50;;;10.50;99.90;;;;;;4979066;28;90369;-31
2023/12/24 08:21:06;;;;;;;9.68;4.55;;;10.50;99.90;;;;;;4965325;28;89414;-29
2023/12/24 08:23:32;;;;;;;7.47;5.38;;;10.50;99.90;;;;;;4988983;28;90857;-30
2023/12/24 08:25:58;;;;;;;11.15;6.07;;;10.50;99.90;;;;;;4994144;28;89505;-30
2023/12/24 08:28:23;;;;;;;8.50;5.18;;;10.50;99.90;;;;;;4988328;28;89709;-32
2023/12/24 08:30:49;;;;;;;17.38;5.95;;;10.60;99.90;;;;;;4991242;28;88718;-32
2023/12/24 08:33:15;;;;;;;11.23;5.20;;;10.60;99.90;;;;;;4993975;28;90349;-29
2023/12/24 08:35:40;;;;;;;9.50;4.72;;;10.50;99.90;;;;;;4991237;28;90415;-29
2023/12/24 08:38:06;;;;;;;10.55;4.07;;;10.60;99.90;;;;;;4995160;28;90193;-30
2023/12/24 08:40:31;;;;;;;11.13;3.60;;;10.60;99.90;;;;;;4990091;28;88872;-32
2023/12/24 08:42:57;;;;;;;12.85;3.85;;;10.60;99.90;;;;;;4993878;28;90110;-29
2023/12/24 08:45:23;;;;;;;5.93;3.90;;;10.60;99.90;;;;;;4990601;28;90733;-29
2023/12/24 08:47:49;;;;;;;13.48;5.22;;;10.60;99.90;;;;;;4994468;28;88820;-33
2023/12/24 08:50:14;;;;;;;10.00;4.57;;;10.70;99.90;;;;;;4990266;28;89629;-30
2023/12/24 08:52:40;;;;;;;9.52;4.15;;;10.60;99.90;;;;;;4993794;28;90297;-32
2023/12/24 08:55:08;;;;;;;21.38;5.60;;;10.70;99.90;;;;;;4989112;28;90092;-30
2023/12/24 08:57:34;;;;;;;12.68;4.43;;;10.70;99.90;;;;;;4992863;28;92171;-31
2023/12/24 09:00:00;;;;;;;6.55;3.65;;;10.70;99.90;;;;;;4979946;28;88772;-29
2023/12/24 09:02:25;;;;;;;19.90;5.28;;;10.70;99.90;;;;;;4994096;28;90405;-29
2023/12/24 09:04:51;;;;;;;11.43;5.57;;;10.70;99.90;;;;;;4988872;28;88939;-32
2023/12/24 09:07:17;;;;;;;8.40;4.68;;;10.70;99.90;;;;;;4993476;28;88996;-31
2023/12/24 09:09:43;;;;;;;22.20;5.38;;;10.70;99.90;;;;;;4989967;28;89124;-29
2023/12/24 09:12:08;;;;;;;7.95;3.35;;;10.80;99.90;;;;;;4991259;28;91831;-32
2023/12/24 09:14:34;;;;;;;14.20;4.35;;;10.80;99.90;;;;;;4991468;28;89559;-32
2023/12/24 09:17:00;;;;;;;5.57;3.88;;;10.80;99.90;;;;;;4993636;28;90025;-30
2023/12/24 09:19:25;;;;;;;15.43;3.50;;;10.80;99.90;;;;;;4989203;28;90181;-32
2023/12/24 09:21:51;;;;;;;19.35;5.07;;;10.80;99.90;;;;;;4994839;28;89366;-30
2023/12/24 09:24:16;;;;;;;4.30;3.90;;;10.90;99.90;;;;;;4991079;28;89494;-34
2023/12/24 09:26:42;;;;;;;4.20;2.63;;;10.90;99.90;;;;;;4991917;28;89716;-31
2023/12/24 09:29:11;;;;;;;6.30;2.67;;;10.90;99.90;;;;;;4991199;28;89577;-33
2023/12/24 09:31:39;;;;;;;11.38;3.03;;;10.90;99.90;;;;;;4984907;28;90374;-33
2023/12/24 09:34:06;;;;;;;7.50;3.07;;;10.90;99.90;;;;;;4994467;28;88891;-33
2023/12/24 09:36:31;;;;;;;3.65;3.08;;;10.90;99.90;;;;;;4985771;28;89891;-32
2023/12/24 09:38:57;;;;;;;6.90;2.63;;;10.90;99.90;;;;;;4996261;28;88923;-31
2023/12/24 09:41:22;;;;;;;10.75;2.30;;;10.90;99.90;;;;;;4986758;28;89848;-27
2023/12/24 09:43:49;;;;;;;7.38;3.05;;;11.00;99.90;;;;;;4977231;28;89686;-31
2023/12/24 09:46:15;;;;;;;7.53;1.73;;;11.00;99.90;;;;;;4977055;28;90665;-32
2023/12/24 09:48:40;;;;;;;6.63;2.58;;;11.00;99.90;;;;;;4977048;28;89290;-32
2023/12/24 09:51:09;;;;;;;4.85;3.08;;;11.00;99.90;;;;;;4976279;28;90899;-32
2023/12/24 09:53:35;;;;;;;11.57;4.63;;;11.00;99.90;;;;;;4977826;28;89566;-32
2023/12/24 09:56:01;;;;;;;6.70;3.20;;;11.10;99.90;;;;;;4983192;28;89876;-32
2023/12/24 09:58:27;;;;;;;9.35;3.85;;;11.10;99.90;;;;;;4979733;28;89786;-31
2023/12/24 10:00:52;;;;;;;5.47;3.33;;;11.10;99.90;;;;;;4993205;28;89849;-31
2023/12/24 10:03:18;;;;;;;6.28;4.22;;;11.10;99.90;;;;;;4989616;28;88916;-31
2023/12/24 10:06:07;;;;;;;10.77;4.78;;;11.10;99.90;;;;;;4988370;28;89335;-31
2023/12/24 10:08:33;;;;;;;9.77;3.85;;;11.20;99.90;;;;;;4989594;28;90053;-30
2023/12/24 10:11:17;;;;;;;11.57;3.97;;;11.20;99.90;;;;;;4979776;28;90248;-29
2023/12/24 10:13:43;;;;;;;4.80;4.20;;;11.20;99.90;;;;;;4983867;28;89773;-30
2023/12/24 10:16:09;;;;;;;10.50;4.22;;;11.20;99.90;;;;;;4986586;28;90015;-32
2023/12/24 10:18:36;;;;;;;4.43;2.83;;;11.20;99.90;;;;;;4989373;28;88636;-31
2023/12/24 10:21:06;;;;;;;8.90;3.38;;;11.20;99.90;;;;;;4986263;28;91171;-33
2023/12/24 10:23:32;;;;;;;9.65;4.18;;;11.30;99.90;;;;;;4988092;28;89566;-29
2023/12/24 10:26:03;;;;;;;6.60;3.33;;;11.30;99.90;;;;;;4985961;28;89828;-31
2023/12/24 10:28:30;;;;;;;5.35;3.13;;;11.30;99.90;;;;;;4991038;28;88374;-31
2023/12/24 10:31:09;;;;;;;5.72;2.83;;;11.30;99.90;;;;;;4981819;28;90192;-30
2023/12/24 10:33:36;;;;;;;4.47;2.90;;;11.30;99.90;;;;;;4994563;28;90358;-29
2023/12/24 10:36:02;;;;;;;8.45;3.13;;;11.40;99.90;;;;;;4994635;28;91469;-28
2023/12/24 10:38:27;;;;;;;6.10;3.17;;;11.30;99.90;;;;;;4985361;28;89425;-33
2023/12/24 10:40:53;;;;;;;5.10;3.20;;;11.40;99.90;;;;;;4974160;28;90583;-32
2023/12/24 10:43:19;;;;;;;5.47;2.90;;;11.30;99.90;;;;;;4979436;28;89865;-31
2023/12/24 10:45:45;;;;;;;7.82;3.25;;;11.30;99.90;;;;;;4995103;28;88798;-33
2023/12/24 10:48:11;;;;;;;11.70;3.92;;;11.30;99.90;;;;;;4985887;28;88981;-32
2023/12/24 10:50:37;;;;;;;11.73;3.60;;;11.40;99.90;;;;;;4975691;28;90781;-33
2023/12/24 10:53:03;;;;;;;9.07;3.70;;;11.40;99.90;;;;;;4979990;28;89604;-31
2023/12/24 10:55:30;;;;;;;4.32;2.22;;;11.40;99.90;;;;;;4982560;28;89431;-32
2023/12/24 10:58:19;;;;;;;6.70;2.83;;;11.40;99.90;;;;;;4970703;28;90281;-31
2023/12/24 11:00:45;;;;;;;3.80;2.50;;;11.40;99.90;;;;;;4982980;28;90431;-33
2023/12/24 11:03:11;;;;;;;6.07;3.05;;;11.40;99.90;;;;;;4990488;28;89930;-29
2023/12/24 11:05:44;;;;;;;5.25;2.05;;;11.50;99.90;;;;;;4997904;28;89013;-30
2023/12/24 11:08:21;;;;;;;5.22;2.45;;;11.60;99.90;;;;;;4998604;28;89123;-32
2023/12/24 11:11:10;;;;;;;13.80;3.95;;;11.60;99.90;;;;;;4984971;28;90354;-32
2023/12/24 11:13:37;;;;;;;10.90;3.80;;;11.60;99.90;;;;;;4967326;28;89881;-32
2023/12/24 11:16:05;;;;;;;8.35;3.55;;;11.70;99.90;;;;;;4978046;28;89132;-30
2023/12/24 11:18:48;;;;;;;8.00;2.17;;;11.70;99.90;;;;;;4979615;28;89394;-29
2023/12/24 11:21:19;;;;;;;5.63;2.05;;;11.70;99.90;;;;;;4981077;28;90325;-32
2023/12/24 11:24:24;;;;;;;4.68;2.40;;;11.70;99.90;;;;;;4987108;28;89304;-30
2023/12/24 11:26:51;;;;;;;10.18;4.55;;;11.80;99.90;;;;;;4916313;28;90632;-30
2023/12/24 11:29:43;;;;;;;9.43;2.75;;;11.80;99.90;;;;;;4929425;28;88097;-33
2023/12/24 11:32:26;;;;;;;7.35;2.40;;;11.80;99.90;;;;;;4967529;28;89703;-31
2023/12/24 11:34:58;;;;;;;6.72;2.42;;;11.90;99.90;;;;;;4967477;28;89606;-29
2023/12/24 11:37:31;;;;;;;6.53;2.55;;;11.80;99.90;;;;;;4978216;28;88155;-31
2023/12/24 11:40:04;;;;;;;7.10;3.55;;;11.80;99.90;;;;;;4983329;28;89405;-33
2023/12/24 11:42:51;;;;;;;3.33;2.50;;;11.80;99.90;;;;;;4988212;28;89740;-31
2023/12/24 11:45:20;;;;;;;5.78;2.50;;;11.80;99.90;;;;;;4972108;28;89666;-33
2023/12/24 11:47:46;;;;;;;5.65;2.83;;;11.80;99.90;;;;;;4997692;28;89993;-31
2023/12/24 11:50:12;;;;;;;5.60;2.63;;;11.80;99.90;;;;;;4997482;28;89261;-32
2023/12/24 11:52:46;;;;;;;10.73;2.67;;;11.90;99.90;;;;;;4982595;28;90185;-30
2023/12/24 11:55:18;;;;;;;8.57;2.28;;;11.90;99.90;;;;;;4979423;28;89851;-32
2023/12/24 11:57:45;;;;;;;13.20;2.95;;;11.80;99.90;;;;;;4994477;28;90219;-29
2023/12/24 12:00:23;;;;;;;3.95;2.38;;;11.80;99.90;;;;;;4978053;28;88298;-32
2023/12/24 12:02:59;;;;;;;8.13;3.13;;;11.90;99.90;;;;;;4977879;28;88875;-32
2023/12/24 12:05:25;;;;;;;4.65;2.38;;;11.90;99.90;;;;;;4979360;28;89807;-31
2023/12/24 12:07:53;;;;;;;6.25;2.40;;;11.90;99.90;;;;;;4978399;28;89658;-32
2023/12/24 12:10:19;;;;;;;6.72;2.75;;;11.90;99.90;;;;;;4978524;28;87735;-32
2023/12/24 12:12:45;;;;;;;8.93;3.33;;;11.90;99.90;;;;;;4979695;28;90084;-32
2023/12/24 12:15:11;;;;;;;2.17;1.85;;;11.90;99.90;;;;;;4977350;28;90862;-30
2023/12/24 12:17:37;;;;;;;10.00;3.03;;;11.80;99.90;;;;;;4979233;28;90387;-29
2023/12/24 12:20:04;;;;;;;5.63;2.20;;;11.80;99.90;;;;;;4979074;28;90002;-32
2023/12/24 12:22:30;;;;;;;9.50;3.47;;;11.90;99.90;;;;;;4978533;28;88939;-33
2023/12/24 12:24:55;;;;;;;4.88;2.67;;;11.90;99.90;;;;;;4977655;28;89434;-32
2023/12/24 12:27:21;;;;;;;3.88;2.83;;;11.80;99.90;;;;;;4980007;28;88644;-32
2023/12/24 12:29:46;;;;;;;3.97;2.60;;;11.80;99.90;;;;;;4997242;28;89411;-31
2023/12/24 12:32:12;;;;;;;5.50;2.72;;;11.80;99.90;;;;;;4997316;28;90290;-31
2023/12/24 12:34:39;;;;;;;4.85;2.22;;;11.80;99.90;;;;;;4995547;28;90105;-31
2023/12/24 12:37:05;;;;;;;6.82;2.90;;;11.80;99.90;;;;;;4984321;28;89362;-31
2023/12/24 12:39:30;;;;;;;7.45;2.65;;;11.80;99.90;;;;;;4995361;28;89516;-32
2023/12/24 12:41:57;;;;;;;7.28;2.70;;;11.80;99.90;;;;;;4996519;28;90382;-31
2023/12/24 12:44:23;;;;;;;5.65;2.45;;;11.80;99.90;;;;;;4995356;28;89875;-32
2023/12/24 12:46:49;;;;;;;6.10;2.17;;;11.80;99.90;;;;;;4995739;28;89878;-30
2023/12/24 12:49:15;;;;;;;2.35;1.63;;;11.80;99.90;;;;;;4995156;28;88089;-28